createdAt,value
2017-09-02T00:02:20.219Z,85.00
2017-09-02T00:04:47.792Z,84.03
2017-09-02T00:07:15.230Z,84.40
2017-09-02T00:09:42.960Z,85.55
2017-09-02T00:12:10.402Z,85.77
2017-09-02T00:14:37.886Z,83.41
2017-09-02T00:17:05.370Z,84.21
2017-09-02T00:19:32.894Z,84.70
2017-09-02T00:22:00.358Z,85.93
2017-09-02T00:24:27.869Z,84.82
2017-09-02T00:26:55.429Z,85.64
2017-09-02T00:29:22.990Z,83.84
2017-09-02T00:31:50.473Z,84.10
2017-09-02T00:34:17.929Z,84.31
2017-09-02T00:36:45.460Z,84.33
2017-09-02T00:39:13.326Z,84.89
2017-09-02T00:41:40.841Z,85.10
2017-09-02T00:44:08.296Z,84.81
2017-09-02T00:46:35.772Z,85.34
2017-09-02T00:49:03.240Z,85.77
2017-09-02T00:51:30.737Z,85.71
2017-09-02T00:53:58.212Z,85.62
2017-09-02T00:56:25.698Z,86.43
2017-09-02T00:58:53.178Z,86.56
2017-09-02T01:01:20.734Z,86.78
2017-09-02T01:03:48.217Z,86.94
2017-09-02T01:06:15.704Z,87.10
2017-09-02T01:08:43.162Z,87.80
2017-09-02T01:11:10.641Z,87.57
2017-09-02T01:13:38.125Z,88.08
2017-09-02T01:16:05.701Z,88.06
2017-09-02T01:18:33.665Z,86.25
2017-09-02T01:21:01.207Z,86.46
2017-09-02T01:23:28.760Z,87.08
2017-09-02T01:25:56.299Z,86.83
2017-09-02T01:28:23.776Z,87.46
2017-09-02T01:30:51.795Z,87.69
2017-09-02T01:33:19.297Z,87.45
2017-09-02T01:35:46.747Z,86.27
2017-09-02T01:38:14.261Z,86.52
2017-09-02T01:40:41.728Z,86.00
2017-09-02T01:43:09.342Z,86.28
2017-09-02T01:45:36.803Z,85.85
2017-09-02T01:48:04.281Z,85.46
2017-09-02T01:50:31.784Z,85.51
2017-09-02T01:52:59.307Z,86.12
2017-09-02T01:55:26.814Z,85.85
2017-09-02T01:57:54.308Z,86.14
2017-09-02T02:00:21.757Z,84.70
2017-09-02T02:02:49.240Z,84.70
2017-09-02T02:05:16.696Z,84.59
2017-09-02T02:07:44.187Z,83.72
2017-09-02T02:10:11.659Z,84.11
2017-09-02T02:12:39.137Z,82.18
2017-09-02T02:15:06.607Z,80.86
2017-09-02T02:17:34.064Z,82.91
2017-09-02T02:20:01.593Z,83.75
2017-09-02T02:22:29.056Z,84.14
2017-09-02T02:24:56.609Z,85.37
2017-09-02T02:27:24.165Z,85.55
2017-09-02T02:29:51.657Z,85.46
2017-09-02T02:32:19.233Z,85.21
2017-09-02T02:34:46.740Z,85.89
2017-09-02T02:37:14.209Z,86.21
2017-09-02T02:39:41.773Z,86.21
2017-09-02T02:42:09.229Z,87.84
2017-09-02T02:44:36.793Z,87.55
2017-09-02T02:47:04.326Z,87.30
2017-09-02T02:49:31.900Z,87.19
2017-09-02T02:51:59.369Z,87.60
2017-09-02T02:54:26.903Z,87.02
2017-09-02T02:56:54.369Z,86.86
2017-09-02T02:59:22.007Z,85.74
2017-09-02T03:01:49.545Z,85.36
2017-09-02T03:04:17.049Z,85.75
2017-09-02T03:06:44.598Z,84.57
2017-09-02T03:09:12.159Z,85.72
2017-09-02T03:11:39.616Z,86.10
2017-09-02T03:14:07.125Z,86.03
2017-09-02T03:16:34.576Z,86.45
2017-09-02T03:19:02.080Z,85.84
2017-09-02T03:21:29.638Z,85.70
2017-09-02T03:23:57.091Z,86.14
2017-09-02T03:26:24.574Z,85.58
2017-09-02T03:28:52.109Z,87.86
2017-09-02T03:31:19.600Z,87.64
2017-09-02T03:33:47.061Z,87.17
2017-09-02T03:36:14.553Z,86.64
2017-09-02T03:38:42.040Z,85.39
2017-09-02T03:41:09.513Z,86.04
2017-09-02T03:43:37.065Z,85.88
2017-09-02T03:46:04.584Z,86.25
2017-09-02T03:48:32.033Z,86.72
2017-09-02T03:50:59.688Z,86.67
2017-09-02T03:53:27.201Z,86.61
2017-09-02T03:55:54.678Z,86.28
2017-09-02T03:58:22.131Z,86.58
2017-09-02T04:00:49.629Z,85.79
2017-09-02T04:03:17.085Z,86.88
2017-09-02T04:05:44.583Z,87.02
2017-09-02T04:08:12.148Z,87.05
2017-09-02T04:10:39.687Z,86.68
2017-09-02T04:13:07.255Z,85.13
2017-09-02T04:15:34.732Z,86.33
2017-09-02T04:18:02.212Z,85.83
2017-09-02T04:20:29.725Z,83.92
2017-09-02T04:22:57.228Z,84.41
2017-09-02T04:25:26.300Z,85.46
2017-09-02T04:27:53.841Z,85.74
2017-09-02T04:30:21.394Z,86.19
2017-09-02T04:32:48.895Z,85.82
2017-09-02T04:35:16.412Z,86.16
2017-09-02T04:37:43.891Z,85.95
2017-09-02T04:40:11.424Z,87.09
2017-09-02T04:42:39.126Z,87.05
2017-09-02T04:45:06.647Z,87.10
2017-09-02T04:47:34.151Z,87.10
2017-09-02T04:50:01.605Z,87.04
2017-09-02T04:52:29.134Z,86.73
2017-09-02T04:54:56.670Z,86.77
2017-09-02T04:57:24.229Z,86.89
2017-09-02T04:59:51.796Z,86.59
2017-09-02T05:02:19.357Z,86.73
2017-09-02T05:04:46.818Z,86.87
2017-09-02T05:07:14.373Z,86.81
2017-09-02T05:09:42.181Z,87.01
2017-09-02T05:12:09.838Z,87.14
2017-09-02T05:14:37.400Z,86.31
2017-09-02T05:17:04.898Z,85.31
2017-09-02T05:19:32.356Z,84.60
2017-09-02T05:21:59.924Z,85.32
2017-09-02T05:24:27.405Z,85.58
2017-09-02T05:26:54.896Z,85.34
2017-09-02T05:29:22.377Z,85.16
2017-09-02T05:31:49.900Z,85.62
2017-09-02T05:34:17.377Z,85.58
2017-09-02T05:36:44.832Z,86.02
2017-09-02T05:39:12.336Z,86.06
2017-09-02T05:41:39.878Z,86.21
2017-09-02T05:44:07.353Z,85.67
2017-09-02T05:46:34.809Z,85.93
2017-09-02T05:49:02.294Z,85.98
2017-09-02T05:51:29.750Z,86.29
2017-09-02T05:53:57.232Z,85.39
2017-09-02T05:56:24.749Z,84.87
2017-09-02T05:58:52.255Z,82.33
2017-09-02T06:01:19.725Z,80.23
2017-09-02T06:03:47.296Z,80.91
2017-09-02T06:06:14.768Z,81.90
2017-09-02T06:08:42.248Z,81.71
2017-09-02T06:11:09.703Z,83.06
2017-09-02T06:13:37.221Z,81.43
2017-09-02T06:16:04.785Z,79.67
2017-09-02T06:18:32.248Z,78.91
2017-09-02T06:20:59.801Z,79.02
2017-09-02T06:23:27.288Z,79.15
2017-09-02T06:25:54.776Z,79.02
2017-09-02T06:28:22.268Z,79.17
2017-09-02T06:30:49.749Z,79.41
2017-09-02T06:33:17.272Z,79.06
2017-09-02T06:35:44.753Z,78.97
2017-09-02T06:38:12.388Z,79.42
2017-09-02T06:40:39.976Z,77.31
2017-09-02T06:43:07.529Z,77.04
2017-09-02T06:45:35.040Z,76.67
2017-09-02T06:48:02.509Z,75.39
2017-09-02T06:50:29.997Z,76.33
2017-09-02T06:52:57.460Z,74.99
2017-09-02T06:55:24.944Z,76.16
2017-09-02T06:57:52.395Z,76.11
2017-09-02T07:00:19.897Z,75.75
2017-09-02T07:02:47.348Z,73.94
2017-09-02T07:05:14.841Z,73.75
2017-09-02T07:07:42.401Z,75.31
2017-09-02T07:10:09.904Z,73.25
2017-09-02T07:12:37.409Z,73.82
2017-09-02T07:15:04.964Z,73.84
2017-09-02T07:17:32.573Z,74.42
2017-09-02T07:20:00.613Z,72.18
2017-09-02T07:22:28.180Z,72.70
2017-09-02T07:24:55.665Z,74.24
2017-09-02T07:27:23.215Z,74.45
2017-09-02T07:29:50.708Z,74.06
2017-09-02T07:32:18.189Z,72.27
2017-09-02T07:34:45.776Z,71.95
2017-09-02T07:37:13.312Z,71.58
2017-09-02T07:39:40.776Z,71.40
2017-09-02T07:42:08.252Z,71.41
2017-09-02T07:44:36.469Z,71.00
2017-09-02T07:47:03.947Z,69.36
2017-09-02T07:49:31.405Z,69.81
2017-09-02T07:51:58.885Z,70.34
2017-09-02T07:54:26.440Z,69.64
2017-09-02T07:56:53.977Z,68.99
2017-09-02T07:59:21.440Z,69.06
2017-09-02T08:01:48.952Z,67.90
2017-09-02T08:04:16.425Z,69.26
2017-09-02T08:06:43.898Z,68.09
2017-09-02T08:09:11.361Z,69.08
2017-09-02T08:11:38.844Z,69.05
2017-09-02T08:14:06.308Z,67.42
2017-09-02T08:16:33.836Z,67.92
2017-09-02T08:19:01.394Z,67.42
2017-09-02T08:21:28.846Z,67.33
2017-09-02T08:23:59.085Z,69.01
2017-09-02T08:26:26.630Z,66.89
2017-09-02T08:28:54.109Z,67.61
2017-09-02T08:31:21.580Z,68.61
2017-09-02T08:33:49.105Z,67.89
2017-09-02T08:36:16.981Z,68.12
2017-09-02T08:38:44.459Z,66.86
2017-09-02T08:41:11.945Z,67.82
2017-09-02T08:43:39.428Z,68.10
2017-09-02T08:46:06.889Z,66.92
2017-09-02T08:48:34.401Z,65.92
2017-09-02T08:51:01.861Z,66.41
2017-09-02T08:53:29.340Z,65.44
2017-09-02T08:55:56.797Z,64.75
2017-09-02T08:58:24.301Z,66.90
2017-09-02T09:00:51.761Z,66.96
2017-09-02T09:03:19.301Z,65.93
2017-09-02T09:05:46.761Z,65.69
2017-09-02T09:08:14.237Z,66.41
2017-09-02T09:10:41.764Z,67.31
2017-09-02T09:13:09.337Z,67.36
2017-09-02T09:15:36.949Z,67.53
2017-09-02T09:18:04.424Z,67.79
2017-09-02T09:20:31.872Z,69.01
2017-09-02T09:22:59.364Z,68.35
2017-09-02T09:25:28.341Z,68.38
2017-09-02T09:27:55.813Z,67.47
2017-09-02T09:30:23.296Z,66.86
2017-09-02T09:32:50.783Z,67.70
2017-09-02T09:35:18.313Z,68.46
2017-09-02T09:37:46.437Z,67.21
2017-09-02T09:40:13.909Z,68.57
2017-09-02T09:42:41.817Z,69.53
2017-09-02T09:45:09.332Z,71.63
2017-09-02T09:47:36.893Z,75.36
2017-09-02T09:50:04.377Z,75.71
2017-09-02T09:52:32.302Z,76.53
2017-09-02T09:55:00.010Z,76.88
2017-09-02T09:57:27.494Z,82.42
2017-09-02T09:59:54.968Z,80.70
2017-09-02T10:02:22.429Z,80.80
2017-09-02T10:04:49.909Z,79.46
2017-09-02T10:07:17.375Z,77.31
2017-09-02T10:09:44.862Z,78.79
2017-09-02T10:12:12.362Z,80.66
2017-09-02T10:14:39.841Z,78.49
2017-09-02T10:17:07.292Z,80.02
2017-09-02T10:19:34.780Z,76.93
2017-09-02T10:22:02.231Z,76.10
2017-09-02T10:24:29.765Z,74.50
2017-09-02T10:26:57.253Z,75.00
2017-09-02T10:29:24.713Z,75.83
2017-09-02T10:31:52.228Z,74.54
2017-09-02T10:34:19.742Z,77.51
2017-09-02T10:36:47.215Z,78.36
2017-09-02T10:39:14.701Z,78.52
2017-09-02T10:41:42.273Z,76.88
2017-09-02T10:44:14.682Z,74.78
2017-09-02T10:46:42.259Z,78.29
2017-09-02T10:49:10.160Z,78.51
2017-09-02T10:51:37.641Z,81.83
2017-09-02T10:54:05.147Z,79.26
2017-09-02T10:56:32.637Z,79.89
2017-09-02T10:59:01.329Z,77.04
2017-09-02T11:01:28.876Z,77.08
2017-09-02T11:03:56.441Z,80.21
2017-09-02T11:06:23.941Z,77.57
2017-09-02T11:08:51.399Z,79.13
2017-09-02T11:11:18.877Z,80.96
2017-09-02T11:13:46.394Z,79.92
2017-09-02T11:16:13.885Z,83.44
2017-09-02T11:18:41.341Z,83.02
2017-09-02T11:21:08.825Z,79.09
2017-09-02T11:23:36.276Z,81.82
2017-09-02T11:26:03.800Z,77.91
2017-09-02T11:28:31.309Z,76.80
2017-09-02T11:30:58.776Z,77.75
2017-09-02T11:36:00.033Z,75.30
2017-09-02T11:38:27.587Z,77.91
2017-09-02T11:40:55.122Z,75.74
2017-09-02T11:43:22.601Z,76.20
2017-09-02T11:45:50.056Z,76.42
2017-09-02T11:48:17.544Z,76.03
2017-09-02T11:50:45.021Z,77.83
2017-09-02T11:53:12.501Z,77.10
2017-09-02T11:55:39.969Z,75.94
2017-09-02T11:58:07.583Z,71.24
2017-09-02T12:00:35.092Z,71.41
2017-09-02T12:03:02.685Z,69.52
2017-09-02T12:05:30.242Z,72.07
2017-09-02T12:07:57.781Z,69.46
2017-09-02T12:10:25.241Z,68.72
2017-09-02T12:12:52.804Z,68.22
2017-09-02T12:15:20.276Z,69.83
2017-09-02T12:17:47.826Z,69.45
2017-09-02T12:20:15.373Z,70.80
2017-09-02T12:22:42.856Z,72.47
2017-09-02T12:25:10.341Z,69.38
2017-09-02T12:27:37.840Z,70.35
2017-09-02T12:30:05.356Z,69.21
2017-09-02T12:32:32.865Z,67.00
2017-09-02T12:35:00.425Z,68.05
2017-09-02T12:37:28.017Z,67.69
2017-09-02T12:39:55.537Z,68.50
2017-09-02T12:42:23.099Z,66.39
2017-09-02T12:44:50.577Z,62.64
2017-09-02T12:47:18.045Z,62.46
2017-09-02T12:49:45.567Z,62.84
2017-09-02T12:52:13.070Z,63.47
2017-09-02T12:54:40.545Z,64.87
2017-09-02T12:57:08.000Z,64.96
2017-09-02T12:59:35.505Z,65.26
2017-09-02T13:02:02.958Z,63.36
2017-09-02T13:04:30.897Z,64.94
2017-09-02T13:06:58.982Z,63.50
2017-09-02T13:09:26.526Z,63.87
2017-09-02T13:11:54.218Z,63.29
2017-09-02T13:14:21.768Z,61.43
2017-09-02T13:16:49.238Z,60.31
2017-09-02T13:19:16.716Z,61.85
2017-09-02T13:21:44.179Z,63.69
2017-09-02T13:24:11.657Z,62.22
2017-09-02T13:26:39.143Z,61.86
2017-09-02T13:29:06.646Z,60.71
2017-09-02T13:31:34.176Z,62.28
2017-09-02T13:34:01.721Z,59.58
2017-09-02T13:36:29.193Z,59.24
2017-09-02T13:38:56.650Z,61.49
2017-09-02T13:41:24.208Z,58.88
2017-09-02T13:43:51.668Z,65.91
2017-09-02T13:46:19.148Z,70.90
2017-09-02T13:48:46.646Z,69.66
2017-09-02T13:51:14.133Z,68.94
2017-09-02T13:53:41.687Z,68.44
2017-09-02T13:56:09.245Z,72.45
2017-09-02T13:58:36.812Z,65.02
2017-09-02T14:01:04.363Z,71.67
2017-09-02T14:03:31.845Z,73.43
2017-09-02T14:05:59.357Z,65.50
2017-09-02T14:08:26.821Z,68.96
2017-09-02T14:10:54.368Z,67.98
2017-09-02T14:13:22.485Z,69.24
2017-09-02T14:15:49.980Z,67.79
2017-09-02T14:18:17.480Z,68.17
2017-09-02T14:20:45.020Z,67.66
2017-09-02T14:23:12.597Z,68.84
2017-09-02T14:25:40.105Z,66.74
2017-09-02T14:28:07.613Z,67.75
2017-09-02T14:30:35.077Z,68.22
2017-09-02T14:33:02.586Z,69.13
2017-09-02T14:35:30.053Z,67.99
2017-09-02T14:37:57.530Z,69.99
2017-09-02T14:40:25.093Z,67.07
2017-09-02T14:42:52.577Z,70.25
2017-09-02T14:45:20.121Z,68.59
2017-09-02T14:47:47.608Z,66.62
2017-09-02T14:50:15.124Z,66.52
2017-09-02T14:52:42.689Z,63.10
2017-09-02T14:55:10.193Z,63.88
2017-09-02T14:57:37.709Z,61.17
2017-09-02T15:00:05.185Z,63.10
2017-09-02T15:02:32.647Z,64.06
2017-09-02T15:05:00.496Z,64.86
2017-09-02T15:07:28.089Z,64.44
2017-09-02T15:09:55.577Z,63.43
2017-09-02T15:12:23.062Z,63.31
2017-09-02T15:14:50.545Z,63.16
2017-09-02T15:17:18.105Z,63.88
2017-09-02T15:19:45.632Z,64.46
2017-09-02T15:22:13.104Z,65.78
2017-09-02T15:24:40.667Z,66.11
2017-09-02T15:27:08.218Z,66.54
2017-09-02T15:29:35.720Z,64.45
2017-09-02T15:32:03.568Z,62.97
2017-09-02T15:34:31.069Z,62.57
2017-09-02T15:36:58.654Z,64.36
2017-09-02T15:39:26.115Z,65.46
2017-09-02T15:41:53.671Z,68.25
2017-09-02T15:44:21.213Z,67.81
2017-09-02T15:46:48.717Z,66.53
2017-09-02T15:49:16.178Z,65.72
2017-09-02T15:51:43.794Z,66.35
2017-09-02T15:54:11.297Z,67.70
2017-09-02T15:56:38.789Z,67.52
2017-09-02T15:59:06.261Z,69.91
2017-09-02T16:01:33.871Z,68.66
2017-09-02T16:04:01.412Z,70.13
2017-09-02T16:06:28.924Z,69.25
2017-09-02T16:08:56.380Z,67.86
2017-09-02T16:11:23.861Z,70.49
2017-09-02T16:13:51.358Z,68.81
2017-09-02T16:16:18.881Z,71.04
2017-09-02T16:18:46.357Z,71.83
2017-09-02T16:21:13.832Z,70.10
2017-09-02T16:23:41.297Z,68.64
2017-09-02T16:26:08.802Z,68.74
2017-09-02T16:28:36.276Z,69.10
2017-09-02T16:31:03.825Z,66.43
2017-09-02T16:33:31.279Z,67.32
2017-09-02T16:35:58.756Z,66.92
2017-09-02T16:38:26.472Z,65.91
2017-09-02T16:40:53.928Z,67.03
2017-09-02T16:43:21.400Z,64.38
2017-09-02T16:45:48.853Z,64.33
2017-09-02T16:48:16.331Z,65.58
2017-09-02T16:50:43.789Z,63.89
2017-09-02T16:53:11.264Z,65.30
2017-09-02T16:55:38.745Z,64.25
2017-09-02T16:58:06.239Z,63.91
2017-09-02T17:00:33.696Z,65.61
2017-09-02T17:03:01.173Z,64.69
2017-09-02T17:05:28.644Z,65.09
2017-09-02T17:07:56.121Z,65.45
2017-09-02T17:10:23.614Z,67.82
2017-09-02T17:12:51.094Z,68.35
2017-09-02T17:15:18.552Z,68.50
2017-09-02T17:17:46.052Z,68.63
2017-09-02T17:20:13.513Z,69.91
2017-09-02T17:22:40.989Z,71.38
2017-09-02T17:25:08.456Z,69.03
2017-09-02T17:27:35.971Z,70.82
2017-09-02T17:30:03.449Z,70.61
2017-09-02T17:32:30.940Z,71.14
2017-09-02T17:34:58.396Z,69.52
2017-09-02T17:37:25.888Z,70.65
2017-09-02T17:39:53.351Z,72.82
2017-09-02T17:42:20.869Z,73.14
2017-09-02T17:44:48.937Z,74.85
2017-09-02T17:47:16.421Z,75.40
2017-09-02T17:49:44.237Z,76.47
2017-09-02T17:52:11.714Z,77.56
2017-09-02T17:54:39.204Z,79.49
2017-09-02T17:57:06.661Z,79.06
2017-09-02T17:59:34.137Z,79.44
2017-09-02T18:02:01.645Z,79.58
2017-09-02T18:04:29.117Z,80.03
2017-09-02T18:06:56.615Z,79.69
2017-09-02T18:09:24.096Z,80.95
2017-09-02T18:11:51.550Z,81.20
2017-09-02T18:14:19.056Z,81.76
2017-09-02T18:16:46.517Z,84.04
2017-09-02T18:19:13.999Z,82.70
2017-09-02T18:21:41.449Z,83.58
2017-09-02T18:24:09.105Z,81.94
2017-09-02T18:26:36.585Z,82.10
2017-09-02T18:29:04.032Z,83.33
2017-09-02T18:31:31.533Z,82.86
2017-09-02T18:33:58.998Z,83.36
2017-09-02T18:36:26.545Z,82.87
2017-09-02T18:38:54.114Z,82.80
2017-09-02T18:41:21.594Z,82.75
2017-09-02T18:43:49.057Z,82.96
2017-09-02T18:46:16.592Z,83.13
2017-09-02T18:48:44.048Z,82.68
2017-09-02T18:51:11.529Z,81.65
2017-09-02T18:53:38.990Z,81.67
2017-09-02T18:56:06.469Z,80.90
2017-09-02T18:58:34.012Z,81.32
2017-09-02T19:01:01.499Z,81.59
2017-09-02T19:03:28.969Z,81.75
2017-09-02T19:05:56.668Z,82.30
2017-09-02T19:08:24.124Z,82.35
2017-09-02T19:10:51.637Z,82.31
2017-09-02T19:13:19.123Z,82.83
2017-09-02T19:15:46.603Z,82.53
2017-09-02T19:18:14.921Z,82.36
2017-09-02T19:20:42.450Z,82.41
2017-09-02T19:23:10.035Z,82.43
2017-09-02T19:25:37.671Z,83.20
2017-09-02T19:28:05.393Z,83.98
2017-09-02T19:30:33.017Z,83.49
2017-09-02T19:33:00.566Z,85.38
2017-09-02T19:35:28.081Z,84.38
2017-09-02T19:37:55.573Z,84.33
2017-09-02T19:40:23.043Z,84.52
2017-09-02T19:42:50.529Z,84.00
2017-09-02T19:45:18.041Z,84.41
2017-09-02T19:47:45.582Z,84.16
2017-09-02T19:50:13.210Z,84.13
2017-09-02T19:52:40.821Z,85.34
2017-09-02T19:55:08.284Z,84.80
2017-09-02T19:57:35.830Z,85.78
2017-09-02T20:00:03.304Z,84.97
2017-09-02T20:02:30.833Z,86.04
2017-09-02T20:04:58.346Z,85.88
2017-09-02T20:07:25.852Z,86.45
2017-09-02T20:09:53.320Z,86.60
2017-09-02T20:12:20.807Z,86.54
2017-09-02T20:14:48.293Z,85.36
2017-09-02T20:17:15.788Z,84.78
2017-09-02T20:19:43.518Z,85.05
2017-09-02T20:22:11.005Z,85.47
2017-09-02T20:24:38.473Z,83.74
2017-09-02T20:27:06.286Z,84.41
2017-09-02T20:29:33.859Z,85.67
2017-09-02T20:32:01.348Z,85.34
2017-09-02T20:34:28.833Z,85.11
2017-09-02T20:36:56.326Z,84.82
2017-09-02T20:39:23.869Z,85.05
2017-09-02T20:41:51.437Z,83.01
2017-09-02T20:44:18.921Z,81.27
2017-09-02T20:46:46.626Z,79.54
2017-09-02T20:49:14.208Z,81.32
2017-09-02T20:51:41.773Z,81.44
2017-09-02T20:54:09.273Z,81.91
2017-09-02T20:56:36.751Z,82.32
2017-09-02T20:59:04.249Z,81.80
2017-09-02T21:01:31.805Z,79.99
2017-09-02T21:03:59.317Z,81.74
2017-09-02T21:06:26.820Z,82.39
2017-09-02T21:08:54.315Z,82.07
2017-09-02T21:11:21.833Z,82.66
2017-09-02T21:13:49.347Z,82.94
2017-09-02T21:16:16.801Z,83.68
2017-09-02T21:18:44.298Z,84.63
2017-09-02T21:21:11.770Z,84.13
2017-09-02T21:23:39.249Z,83.33
2017-09-02T21:26:06.777Z,82.88
2017-09-02T21:28:34.289Z,81.93
2017-09-02T21:31:01.768Z,82.64
2017-09-02T21:33:29.248Z,81.86
2017-09-02T21:35:56.705Z,82.73
2017-09-02T21:38:24.186Z,83.42
2017-09-02T21:40:51.717Z,84.02
2017-09-02T21:43:19.205Z,84.31
2017-09-02T21:45:46.793Z,85.25
2017-09-02T21:48:14.284Z,84.71
2017-09-02T21:50:41.852Z,84.56
2017-09-02T21:53:09.331Z,85.44
2017-09-02T21:55:36.864Z,85.04
2017-09-02T21:58:04.433Z,85.19
2017-09-02T22:00:31.985Z,84.21
2017-09-02T22:02:59.551Z,84.33
2017-09-02T22:05:27.104Z,84.99
2017-09-02T22:07:54.607Z,83.67
2017-09-02T22:10:22.081Z,84.86
2017-09-02T22:12:49.589Z,85.60
2017-09-02T22:15:17.042Z,86.29
2017-09-02T22:17:44.492Z,85.63
2017-09-02T22:20:11.984Z,86.48
2017-09-02T22:22:39.514Z,84.63
2017-09-02T22:25:07.062Z,85.26
2017-09-02T22:27:34.621Z,85.30
2017-09-02T22:30:02.183Z,84.53
2017-09-02T22:32:29.646Z,84.57
2017-09-02T22:34:57.140Z,84.43
2017-09-02T22:37:24.753Z,84.43
2017-09-02T22:39:52.258Z,84.18
2017-09-02T22:42:19.721Z,84.74
2017-09-02T22:44:47.205Z,84.95
2017-09-02T22:47:14.729Z,84.88
2017-09-02T22:49:42.236Z,84.74
2017-09-02T22:52:09.697Z,85.82
2017-09-02T22:54:37.194Z,86.37
2017-09-02T22:57:04.655Z,87.56
2017-09-02T22:59:32.137Z,87.36
2017-09-02T23:01:59.629Z,86.36
2017-09-02T23:04:27.110Z,87.02
2017-09-02T23:06:54.578Z,86.41
2017-09-02T23:09:22.143Z,85.61
2017-09-02T23:11:49.657Z,84.46
2017-09-02T23:14:17.212Z,85.33
2017-09-02T23:16:44.669Z,86.35
2017-09-02T23:19:12.163Z,86.96
2017-09-02T23:21:39.685Z,87.45
2017-09-02T23:24:07.172Z,87.20
2017-09-02T23:26:34.709Z,86.63
2017-09-02T23:29:02.184Z,82.85
2017-09-02T23:31:29.635Z,84.56
2017-09-02T23:33:57.174Z,85.41
2017-09-02T23:36:24.632Z,85.66
2017-09-02T23:38:52.102Z,86.13
2017-09-02T23:41:19.595Z,86.39
2017-09-02T23:43:47.044Z,85.70
2017-09-02T23:46:14.536Z,85.78
2017-09-02T23:48:41.998Z,85.24
2017-09-02T23:51:09.476Z,85.42
2017-09-02T23:53:37.024Z,85.83
2017-09-02T23:56:04.505Z,85.45
2017-09-02T23:58:31.992Z,86.72
